Time;durP1;ratioP1;P1;durP2;ratioP2;P2;SDS_P1;SDS_P2;PMS_P1;PMS_P2;Temp;Humidity;BMP_temperature;BMP_pressure;BME280_temperature;BME280_humidity;BME280_pressure;Samples;Min_cycle;Max_cycle;Signal;HPM_P1;HPM_P2
2022/05/21 00:01:27;;;;;;;8.88;6.45;;;;;;;11.55;75.14;101870.66;5007961;28;20160;-79
2022/05/21 00:03:52;;;;;;;8.80;5.82;;;;;;;11.55;75.79;101870.66;5007658;28;20049;-78
2022/05/21 00:06:19;;;;;;;8.40;5.90;;;;;;;11.54;75.29;101868.94;5007561;28;20125;-78
2022/05/21 00:08:44;;;;;;;8.02;5.60;;;;;;;11.54;75.31;101875.00;5005610;28;20408;-78
2022/05/21 00:11:10;;;;;;;8.98;6.10;;;;;;;11.54;75.41;101875.00;5006712;28;21228;-78
2022/05/21 00:13:35;;;;;;;9.30;5.55;;;;;;;11.56;75.42;101876.72;5006813;28;20030;-78
2022/05/21 00:16:00;;;;;;;7.78;5.35;;;;;;;11.54;75.60;101874.16;5010898;28;20041;-77
2022/05/21 00:18:25;;;;;;;8.45;5.30;;;;;;;11.55;75.58;101875.88;5012761;28;20056;-77
2022/05/21 00:20:51;;;;;;;9.93;6.22;;;;;;;11.56;75.54;101875.00;5012763;28;20041;-77
2022/05/21 00:23:26;;;;;;;7.65;5.28;;;;;;;11.57;75.15;101879.31;5011196;28;20056;-77
2022/05/21 00:25:59;;;;;;;8.68;5.70;;;;;;;11.56;75.53;101872.38;5012764;28;20064;-77
2022/05/21 00:28:25;;;;;;;9.65;4.63;;;;;;;11.58;75.36;101868.03;5012825;28;20389;-77
2022/05/21 00:30:50;;;;;;;8.57;5.20;;;;;;;11.59;75.43;101866.25;5012234;28;20030;-77
2022/05/21 00:33:16;;;;;;;7.75;4.82;;;;;;;11.60;75.17;101874.09;5012257;28;20102;-77
2022/05/21 00:35:41;;;;;;;7.50;4.90;;;;;;;11.60;75.05;101876.69;5010618;28;20488;-77
2022/05/21 00:38:07;;;;;;;7.32;4.53;;;;;;;11.62;75.17;101876.66;5012612;28;20018;-77
2022/05/21 00:40:33;;;;;;;6.70;4.25;;;;;;;11.61;75.18;101872.31;5012304;28;20527;-77
2022/05/21 00:42:59;;;;;;;8.32;4.50;;;;;;;11.62;74.99;101868.84;5012942;28;20053;-77
2022/05/21 00:45:24;;;;;;;7.03;4.15;;;;;;;11.63;75.09;101868.81;5011007;28;20034;-78
2022/05/21 00:47:50;;;;;;;7.65;4.10;;;;;;;11.64;75.31;101874.88;5012218;28;20042;-78
2022/05/21 00:50:22;;;;;;;8.80;4.40;;;;;;;11.65;75.37;101874.84;5009453;28;20030;-78
2022/05/21 00:52:49;;;;;;;7.63;3.80;;;;;;;11.67;74.93;101870.50;5012902;28;20044;-77
2022/05/21 00:55:22;;;;;;;6.75;4.35;;;;;;;11.69;75.02;101871.34;5011336;28;20068;-78
2022/05/21 00:59:47;;;;;;;9.52;3.55;;;;;;;11.71;75.10;101875.66;5012095;28;20091;-78
2022/05/21 01:00:38;;;;;;;8.05;3.60;;;;;;;11.72;74.83;101886.06;5010026;28;20033;-78
2022/05/21 01:03:04;;;;;;;5.65;3.35;;;;;;;11.72;74.95;101883.44;5011934;28;20034;-78
2022/05/21 01:05:30;;;;;;;9.18;3.83;;;;;;;11.72;74.57;101880.00;5009019;28;20391;-78
2022/05/21 01:07:58;;;;;;;6.07;3.30;;;;;;;11.71;75.07;101881.72;5011295;28;20028;-78
2022/05/21 01:10:29;;;;;;;7.20;3.38;;;;;;;11.72;74.77;101877.38;5011504;28;20049;-78
2022/05/21 01:12:57;;;;;;;6.00;3.35;;;;;;;11.71;74.77;101873.91;5012604;28;20125;-78
2022/05/21 01:15:34;;;;;;;5.57;3.00;;;;;;;11.72;74.92;101877.38;5008435;28;20049;-78
2022/05/21 01:17:59;;;;;;;6.25;2.97;;;;;;;11.73;74.72;101876.50;5011899;28;20033;-78
2022/05/21 01:20:38;;;;;;;6.90;3.05;;;;;;;11.73;75.01;101873.91;5010641;28;20022;-78
2022/05/21 01:23:04;;;;;;;6.72;3.22;;;;;;;11.72;74.86;101877.38;5011150;28;20022;-77
2022/05/21 01:25:31;;;;;;;5.75;3.10;;;;;;;11.71;75.18;101870.44;5009078;28;20032;-78
2022/05/21 01:27:58;;;;;;;4.97;2.80;;;;;;;11.73;75.27;101879.13;5027040;28;20022;-78
2022/05/21 01:30:29;;;;;;;5.07;2.85;;;;;;;11.73;75.28;101873.91;5010942;28;20018;-78
2022/05/21 01:32:54;;;;;;;7.45;2.90;;;;;;;11.73;74.71;101876.50;5010956;28;20025;-78
2022/05/21 01:35:20;;;;;;;8.18;3.33;;;;;;;11.72;75.17;101870.41;5009590;28;20052;-78
2022/05/21 01:37:46;;;;;;;8.27;3.10;;;;;;;11.74;75.07;101870.41;5011160;28;20022;-78
2022/05/21 01:40:13;;;;;;;7.05;2.90;;;;;;;11.75;75.12;101882.56;5010600;28;20037;-78
2022/05/21 01:42:39;;;;;;;5.82;2.95;;;;;;;11.73;75.47;101868.69;5009084;28;20501;-77
2022/05/21 01:45:05;;;;;;;7.25;2.80;;;;;;;11.75;75.11;101872.13;5011470;28;20029;-78
2022/05/21 01:47:31;;;;;;;6.28;2.70;;;;;;;11.73;75.01;101871.28;5010868;28;20045;-77
2022/05/21 01:49:57;;;;;;;4.78;2.58;;;;;;;11.73;75.03;101872.13;5010450;28;20037;-78
2022/05/21 01:52:23;;;;;;;6.63;2.70;;;;;;;11.73;74.98;101868.69;5009868;28;20492;-78
2022/05/21 01:54:48;;;;;;;7.15;3.00;;;;;;;11.72;75.09;101872.19;5010639;28;20026;-78
2022/05/21 01:57:13;;;;;;;6.68;2.50;;;;;;;11.72;75.20;101874.78;5009743;28;20419;-78
2022/05/21 01:59:39;;;;;;;5.00;2.35;;;;;;;11.73;74.96;101873.91;5009269;28;20291;-77
2022/05/21 02:02:06;;;;;;;5.00;2.70;;;;;;;11.72;75.14;101873.03;5008047;28;20506;-77
2022/05/21 02:04:31;;;;;;;6.55;2.85;;;;;;;11.73;75.07;101874.75;5011465;28;21886;-78
2022/05/21 02:06:56;;;;;;;7.47;2.78;;;;;;;11.73;75.30;101869.53;5010413;28;20029;-78
2022/05/21 02:09:22;;;;;;;7.38;3.10;;;;;;;11.73;75.23;101869.53;5009136;28;20473;-78
2022/05/21 02:11:47;;;;;;;9.57;3.67;;;;;;;11.75;75.50;101866.94;5008412;28;20026;-78
2022/05/21 02:14:13;;;;;;;11.80;3.97;;;;;;;11.76;75.39;101871.25;5010288;28;20021;-78
2022/05/21 02:16:39;;;;;;;8.40;3.28;;;;;;;11.76;75.79;101873.88;5010520;28;20389;-78
2022/05/21 02:19:06;;;;;;;8.85;3.70;;;;;;;11.78;75.49;101870.34;5008634;28;20021;-78
2022/05/21 02:21:33;;;;;;;6.88;3.70;;;;;;;11.78;75.50;101877.31;5010091;28;20531;-78
2022/05/21 02:23:58;;;;;;;6.15;3.33;;;;;;;11.78;75.57;101878.16;5010760;28;20037;-77
2022/05/21 02:26:24;;;;;;;10.13;3.97;;;;;;;11.79;75.40;101874.69;5010090;28;20022;-78
2022/05/21 02:28:50;;;;;;;9.02;3.60;;;;;;;11.78;75.48;101877.31;5008813;28;20079;-78
2022/05/21 02:31:15;;;;;;;6.65;3.85;;;;;;;11.78;75.45;101872.09;5011007;28;20036;-78
2022/05/21 02:33:41;;;;;;;8.32;4.13;;;;;;;11.78;75.49;101875.56;5010227;28;20432;-78
2022/05/21 02:36:07;;;;;;;11.73;4.20;;;;;;;11.78;75.89;101877.31;5009329;28;20026;-77
2022/05/21 02:41:17;;;;;;;7.70;4.07;;;;;;;11.80;75.71;101867.69;5009380;28;20323;-78
2022/05/21 02:43:43;;;;;;;12.32;4.28;;;;;;;11.78;75.71;101865.13;5008164;28;20026;-77
2022/05/21 02:46:09;;;;;;;9.10;4.30;;;;;;;11.79;75.89;101860.75;5009139;28;20033;-78
2022/05/21 02:48:35;;;;;;;8.95;4.03;;;;;;;11.79;75.77;101865.97;5009015;28;20041;-78
2022/05/21 02:51:01;;;;;;;9.55;3.80;;;;;;;11.80;75.94;101870.31;5010712;28;20022;-78
2022/05/21 02:53:27;;;;;;;7.72;4.25;;;;;;;11.80;75.69;101865.09;5010118;28;20481;-77
2022/05/21 02:55:55;;;;;;;6.82;3.70;;;;;;;11.79;75.82;101863.38;5010107;28;20026;-77
2022/05/21 02:58:21;;;;;;;7.65;3.97;;;;;;;11.79;75.82;101872.06;5009258;28;20076;-78
2022/05/21 03:00:47;;;;;;;10.05;3.65;;;;;;;11.79;75.90;101872.06;5009547;28;20037;-78
2022/05/21 03:03:13;;;;;;;9.52;3.58;;;;;;;11.80;75.79;101873.78;5008995;28;20022;-78
2022/05/21 03:05:39;;;;;;;8.85;3.42;;;;;;;11.81;75.77;101872.03;5008218;28;20044;-78
2022/05/21 03:10:20;;;;;;;10.60;3.60;;;;;;;11.79;75.82;101876.41;5009446;28;20030;-77
2022/05/21 03:10:55;;;;;;;8.07;3.88;;;;;;;11.80;75.96;101875.53;5007786;28;20037;-78
2022/05/21 03:13:20;;;;;;;8.27;3.65;;;;;;;11.80;76.15;101878.13;5011054;28;20091;-78
2022/05/21 03:15:46;;;;;;;9.85;3.50;;;;;;;11.81;75.95;101882.47;5011315;28;20018;-78
2022/05/21 03:18:12;;;;;;;7.68;3.92;;;;;;;11.81;76.00;101877.25;5011440;28;20393;-78
2022/05/21 03:20:39;;;;;;;9.85;3.90;;;;;;;11.80;75.93;101876.41;5013896;28;20046;-78
2022/05/21 03:23:05;;;;;;;9.30;3.58;;;;;;;11.80;76.04;101872.91;5013118;28;20041;-78
2022/05/21 03:25:31;;;;;;;9.63;3.92;;;;;;;11.80;76.14;101870.31;5013453;28;20030;-78
2022/05/21 03:27:56;;;;;;;9.77;4.00;;;;;;;11.79;76.04;101871.19;5012732;28;20032;-78
2022/05/21 03:30:24;;;;;;;8.75;4.07;;;;;;;11.79;76.22;101865.97;5013279;28;20034;-78
2022/05/21 03:32:50;;;;;;;8.18;3.72;;;;;;;11.80;76.31;101873.78;5012658;28;20037;-77
2022/05/21 03:35:16;;;;;;;7.13;3.35;;;;;;;11.80;76.07;101870.31;5027832;28;20077;-78
2022/05/21 03:37:42;;;;;;;7.88;3.60;;;;;;;11.80;76.21;101875.53;5012295;28;20396;-78
2022/05/21 03:40:10;;;;;;;10.48;4.55;;;;;;;11.79;76.30;101873.78;5013373;28;20362;-78
2022/05/21 03:42:37;;;;;;;9.18;4.07;;;;;;;11.78;75.89;101878.16;5013627;28;20030;-77
2022/05/21 03:45:03;;;;;;;8.63;4.10;;;;;;;11.78;76.64;101887.75;5013765;28;20025;-78
2022/05/21 03:47:28;;;;;;;6.93;4.07;;;;;;;11.78;76.28;101887.75;5012443;28;20053;-78
2022/05/21 03:49:53;;;;;;;13.35;4.57;;;;;;;11.79;76.48;101885.09;5012134;28;20303;-77
2022/05/21 03:52:20;;;;;;;14.63;4.57;;;;;;;11.79;76.64;101885.09;5012635;28;20033;-78
2022/05/21 03:54:45;;;;;;;8.43;4.22;;;;;;;11.80;76.27;101888.56;5012185;28;20064;-78
2022/05/21 03:57:11;;;;;;;11.35;4.43;;;;;;;11.81;76.48;101887.69;5012088;28;20022;-78
2022/05/21 03:59:37;;;;;;;9.95;4.38;;;;;;;11.81;76.43;101888.56;5011368;28;20181;-78
2022/05/21 04:02:03;;;;;;;10.20;4.47;;;;;;;11.82;76.58;101884.19;5012304;28;20067;-78
2022/05/21 04:04:28;;;;;;;12.90;4.72;;;;;;;11.82;76.43;101894.63;5010863;28;20037;-77
2022/05/21 04:06:54;;;;;;;10.93;4.57;;;;;;;11.81;76.43;101883.34;5011825;28;20026;-78
2022/05/21 04:09:20;;;;;;;10.10;4.70;;;;;;;11.83;76.68;101891.13;5013108;28;20481;-77
2022/05/21 04:11:45;;;;;;;10.48;4.57;;;;;;;11.82;77.02;101889.41;5013288;28;20030;-78
2022/05/21 04:14:13;;;;;;;14.05;4.47;;;;;;;11.83;76.78;101891.13;5010176;28;20092;-78
2022/05/21 04:16:38;;;;;;;9.70;4.60;;;;;;;11.83;76.58;101897.22;5011879;28;20056;-77
2022/05/21 04:19:04;;;;;;;13.13;4.90;;;;;;;11.83;76.64;101899.84;5012796;28;20029;-77
2022/05/21 04:21:29;;;;;;;12.57;4.65;;;;;;;11.84;76.66;101911.09;5012997;28;20395;-77
2022/05/21 04:23:55;;;;;;;11.13;4.57;;;;;;;11.84;76.45;101903.28;5011085;28;20022;-78
2022/05/21 04:26:21;;;;;;;8.60;4.20;;;;;;;11.85;77.08;101907.63;5012170;28;20350;-78
2022/05/21 04:28:46;;;;;;;9.55;4.10;;;;;;;11.86;76.87;101905.88;5012901;28;20021;-77
2022/05/21 04:31:12;;;;;;;9.70;4.15;;;;;;;11.86;76.80;101911.94;5012683;28;20532;-78
2022/05/21 04:33:37;;;;;;;10.75;4.43;;;;;;;11.87;76.84;101903.25;5010506;28;20038;-77
2022/05/21 04:36:17;;;;;;;9.20;4.22;;;;;;;11.89;76.79;101914.53;5013077;28;20022;-78
2022/05/21 04:38:43;;;;;;;11.48;4.05;;;;;;;11.92;77.02;101917.09;5011872;28;20036;-78
2022/05/21 04:41:08;;;;;;;10.95;3.95;;;;;;;11.93;76.22;101918.81;5012503;28;20055;-78
2022/05/21 04:43:34;;;;;;;13.05;4.05;;;;;;;11.94;76.72;101922.28;5011622;28;20045;-78
2022/05/21 04:45:59;;;;;;;11.60;4.82;;;;;;;11.95;76.79;101927.50;5011708;28;20030;-77
2022/05/21 04:48:24;;;;;;;11.45;4.53;;;;;;;11.95;76.53;101917.06;5012398;28;20049;-78
2022/05/21 04:50:49;;;;;;;9.75;3.80;;;;;;;11.97;76.70;101923.06;5012580;28;20053;-77
2022/05/21 04:53:15;;;;;;;10.18;4.35;;;;;;;11.99;76.47;101918.75;5010983;28;20397;-77
2022/05/21 04:55:40;;;;;;;10.68;4.22;;;;;;;12.01;76.80;101920.47;5012678;28;20063;-77
2022/05/21 04:58:06;;;;;;;10.40;4.57;;;;;;;12.03;76.56;101921.31;5012389;28;20025;-78
2022/05/21 05:00:32;;;;;;;9.27;4.50;;;;;;;12.03;76.80;101923.91;5012611;28;20116;-77
2022/05/21 05:02:57;;;;;;;10.57;4.40;;;;;;;12.03;76.88;101924.78;5011168;28;20029;-78
2022/05/21 05:05:23;;;;;;;7.55;4.10;;;;;;;12.05;76.67;101936.03;5012168;28;20033;-78
2022/05/21 05:07:48;;;;;;;10.90;4.03;;;;;;;12.06;76.35;101929.09;5012267;28;20033;-78
2022/05/21 05:10:15;;;;;;;11.57;4.60;;;;;;;12.07;76.45;101928.22;5010824;28;20034;-78
2022/05/21 05:12:40;;;;;;;14.30;5.25;;;;;;;12.08;76.58;101935.16;5012154;28;20036;-77
2022/05/21 05:15:06;;;;;;;11.55;4.57;;;;;;;12.09;76.63;101929.91;5011067;28;20025;-77
2022/05/21 05:17:31;;;;;;;11.80;5.85;;;;;;;12.14;76.68;101935.94;5012180;28;20084;-78
2022/05/21 05:19:59;;;;;;;16.42;5.50;;;;;;;12.16;76.54;101935.03;5012526;28;20052;-77
2022/05/21 05:22:24;;;;;;;14.30;6.20;;;;;;;12.18;76.64;101936.72;5008905;28;20537;-78
2022/05/21 05:24:50;;;;;;;11.88;6.18;;;;;;;12.20;76.75;101937.56;5010309;28;20120;-77
2022/05/21 05:27:15;;;;;;;11.38;6.03;;;;;;;12.22;76.29;101940.16;5011382;28;20034;-78
2022/05/21 05:29:41;;;;;;;17.10;7.05;;;;;;;12.22;76.75;101954.06;5010491;28;20523;-78
2022/05/21 05:32:07;;;;;;;15.15;6.70;;;;;;;12.23;76.59;101950.59;5011102;28;20042;-77
2022/05/21 05:34:33;;;;;;;16.45;7.10;;;;;;;12.24;76.50;101949.69;5009675;28;20104;-78
2022/05/21 05:36:58;;;;;;;16.80;7.22;;;;;;;12.27;76.59;101952.28;5010248;28;20036;-78
2022/05/21 05:39:24;;;;;;;15.45;7.47;;;;;;;12.28;76.49;101961.81;5009884;28;20392;-77
2022/05/21 05:41:51;;;;;;;14.50;7.63;;;;;;;12.29;76.50;101962.66;5009546;28;20366;-78
2022/05/21 05:44:17;;;;;;;17.70;7.72;;;;;;;12.32;76.16;101964.34;5010134;28;20025;-77
2022/05/21 05:46:42;;;;;;;15.98;7.82;;;;;;;12.32;76.42;101957.41;5010194;28;20029;-78
2022/05/21 05:49:08;;;;;;;21.38;7.82;;;;;;;12.36;76.55;101963.44;5009325;28;20123;-78
2022/05/21 05:51:34;;;;;;;14.30;7.63;;;;;;;12.41;76.79;101961.63;5009709;28;20393;-78
2022/05/21 05:53:59;;;;;;;20.65;7.88;;;;;;;12.45;76.77;101958.94;5009416;28;20029;-78
2022/05/21 05:56:24;;;;;;;16.25;8.35;;;;;;;12.51;76.26;101965.81;5009976;28;20475;-78
2022/05/21 06:01:34;;;;;;;15.52;7.43;;;;;;;12.60;75.39;101968.28;5009639;28;20040;-77
2022/05/21 06:04:00;;;;;;;18.23;8.27;;;;;;;12.63;75.42;101964.75;5010097;28;20058;-78
2022/05/21 06:06:25;;;;;;;16.63;8.40;;;;;;;12.65;75.63;101967.31;5009785;28;20061;-78
2022/05/21 06:08:51;;;;;;;18.48;7.93;;;;;;;12.68;75.80;101969.91;5010791;28;20040;-78
2022/05/21 06:11:17;;;;;;;18.48;7.45;;;;;;;12.69;75.62;101971.63;5009739;28;20152;-78
2022/05/21 06:13:43;;;;;;;17.10;8.45;;;;;;;12.70;75.34;101968.13;5010128;28;20060;-77
2022/05/21 06:16:08;;;;;;;20.05;7.90;;;;;;;12.73;75.94;101983.75;5009987;28;20029;-78
2022/05/21 06:18:34;;;;;;;12.32;7.65;;;;;;;12.80;75.25;101972.31;5009551;28;20119;-78
2022/05/21 06:21:01;;;;;;;20.42;8.00;;;;;;;12.88;75.77;101972.19;5010600;28;20037;-77
2022/05/21 06:23:27;;;;;;;17.30;8.18;;;;;;;12.93;75.20;101975.56;5009800;28;20022;-78
2022/05/21 06:25:52;;;;;;;19.30;8.55;;;;;;;12.95;75.23;101979.00;5009183;28;20153;-78
2022/05/21 06:28:18;;;;;;;17.30;8.15;;;;;;;12.99;74.97;101985.03;5010240;28;20029;-78
2022/05/21 06:30:45;;;;;;;15.55;8.20;;;;;;;13.00;75.44;101978.94;5009095;28;20030;-78
2022/05/21 06:33:20;;;;;;;18.88;8.25;;;;;;;13.01;75.14;101980.66;5008110;28;20117;-77
2022/05/21 06:35:47;;;;;;;19.67;8.32;;;;;;;13.03;74.66;101976.25;5008474;28;20025;-78
2022/05/21 06:38:13;;;;;;;18.38;7.95;;;;;;;13.04;74.20;101991.94;5009200;28;20037;-78
2022/05/21 06:40:38;;;;;;;19.08;7.97;;;;;;;13.04;74.38;101988.44;5007614;28;20029;-78
2022/05/21 06:43:04;;;;;;;17.70;8.18;;;;;;;13.09;74.65;101989.22;5009121;28;20505;-77
2022/05/21 06:45:31;;;;;;;17.38;8.05;;;;;;;13.16;74.30;101996.06;5009752;28;20036;-78
2022/05/21 06:48:03;;;;;;;15.05;7.95;;;;;;;13.23;74.07;101998.56;5009276;28;20454;-78
2022/05/21 06:50:29;;;;;;;18.20;7.97;;;;;;;13.28;73.83;101996.75;5009673;28;20034;-78
2022/05/21 06:52:55;;;;;;;18.30;7.88;;;;;;;13.30;73.39;102000.19;5009606;28;20124;-78
2022/05/21 06:55:21;;;;;;;18.88;7.80;;;;;;;13.32;73.69;102004.47;5008297;28;20032;-78
2022/05/21 06:57:47;;;;;;;16.92;8.38;;;;;;;13.32;73.69;102007.09;5009125;28;20026;-77
2022/05/21 07:00:13;;;;;;;17.10;8.50;;;;;;;13.32;73.46;102004.47;5008340;28;20033;-77
2022/05/21 07:02:40;;;;;;;18.42;8.82;;;;;;;13.34;73.59;102001.84;5006886;28;20061;-78
2022/05/21 07:07:49;;;;;;;22.58;9.30;;;;;;;13.38;74.27;102008.72;5009257;28;20559;-77
2022/05/21 07:10:23;;;;;;;20.98;9.00;;;;;;;13.44;73.44;102013.88;5009919;28;20033;-77
2022/05/21 07:12:49;;;;;;;13.30;7.85;;;;;;;13.50;73.33;102008.53;5008350;28;20026;-77
2022/05/21 07:15:15;;;;;;;19.23;8.45;;;;;;;13.58;72.97;102013.59;5009717;28;20034;-78
2022/05/21 07:17:42;;;;;;;16.95;8.00;;;;;;;13.65;73.16;102010.00;5007810;28;20084;-78
2022/05/21 07:20:11;;;;;;;15.27;7.90;;;;;;;13.74;72.17;102010.72;5010408;28;20032;-77
2022/05/21 07:22:41;;;;;;;18.08;7.78;;;;;;;13.81;73.27;102034.09;5009639;28;20026;-77
2022/05/21 07:25:07;;;;;;;15.63;7.15;;;;;;;13.89;71.50;102026.09;5010094;28;20026;-77
2022/05/21 07:27:32;;;;;;;16.67;7.18;;;;;;;13.97;71.72;102028.53;5007850;28;20408;-77
2022/05/21 07:29:58;;;;;;;14.82;6.50;;;;;;;14.05;70.56;102036.22;5009410;28;20036;-77
2022/05/21 07:32:27;;;;;;;16.52;7.13;;;;;;;14.10;70.73;102043.09;5008673;28;20065;-77
2022/05/21 07:34:57;;;;;;;16.33;6.55;;;;;;;14.15;71.26;102039.50;5007506;28;20026;-78
2022/05/21 07:37:23;;;;;;;12.10;6.57;;;;;;;14.18;70.21;102037.69;5010804;28;20104;-78
2022/05/21 07:39:48;;;;;;;12.02;6.47;;;;;;;14.22;69.99;102038.47;5009576;28;20548;-78
2022/05/21 07:42:13;;;;;;;18.48;7.20;;;;;;;14.22;71.20;102038.47;5008294;28;20032;-77
2022/05/21 07:44:39;;;;;;;17.58;6.85;;;;;;;14.22;70.56;102043.69;5007256;28;20037;-77
2022/05/21 07:47:04;;;;;;;17.08;7.07;;;;;;;14.21;70.17;102045.47;5009252;28;20084;-78
2022/05/21 07:49:30;;;;;;;18.15;7.25;;;;;;;14.21;70.22;102048.09;5008183;28;20036;-78
2022/05/21 07:51:57;;;;;;;19.00;7.53;;;;;;;14.20;70.21;102045.50;5009607;28;20029;-77
2022/05/21 07:54:23;;;;;;;17.58;7.82;;;;;;;14.22;69.81;102048.94;5009022;28;20034;-77
2022/05/21 07:56:48;;;;;;;16.35;7.25;;;;;;;14.27;70.36;102052.31;5008091;28;20029;-78
2022/05/21 07:59:13;;;;;;;11.88;6.82;;;;;;;14.32;70.56;102053.09;5008536;28;20021;-78
2022/05/21 08:01:39;;;;;;;18.45;7.65;;;;;;;14.31;69.76;102059.22;5012240;28;20033;-78
2022/05/21 08:04:04;;;;;;;18.90;7.65;;;;;;;14.27;69.68;102062.78;5011748;28;20473;-77
2022/05/21 08:06:29;;;;;;;14.25;7.15;;;;;;;14.25;70.56;102060.22;5012968;28;20496;-77
2022/05/21 08:08:57;;;;;;;13.10;7.22;;;;;;;14.28;70.12;102061.91;5012039;28;20041;-77
2022/05/21 08:11:22;;;;;;;15.10;7.18;;;;;;;14.32;70.20;102063.56;5010636;28;20037;-77
2022/05/21 08:13:47;;;;;;;17.13;7.30;;;;;;;14.38;70.20;102059.94;5012044;28;20030;-78
2022/05/21 08:16:14;;;;;;;18.67;7.45;;;;;;;14.41;70.21;102071.19;5012089;28;20013;-77
2022/05/21 08:18:41;;;;;;;14.80;7.30;;;;;;;14.47;69.97;102070.19;5012390;28;20065;-78
2022/05/21 08:21:06;;;;;;;15.43;7.28;;;;;;;14.55;69.79;102070.91;5011597;28;20021;-77
2022/05/21 08:29:00;;;;;;;15.02;6.63;;;;;;;14.83;69.55;102066.81;5013952;28;20044;-78
2022/05/21 08:31:25;;;;;;;12.70;6.40;;;;;;;14.88;69.28;102067.53;5012017;28;20373;-78
2022/05/21 08:33:51;;;;;;;13.23;6.15;;;;;;;14.90;67.43;102068.38;5011451;28;20034;-78
2022/05/21 08:36:16;;;;;;;11.40;6.20;;;;;;;14.88;67.25;102059.69;5011344;28;20065;-77
2022/05/21 08:38:41;;;;;;;14.45;6.38;;;;;;;14.92;69.34;102050.84;5009540;28;20079;-77
2022/05/21 08:41:07;;;;;;;12.98;6.75;;;;;;;14.98;68.43;102060.31;5009853;28;20403;-77
2022/05/21 08:43:55;;;;;;;15.40;6.47;;;;;;;15.06;67.74;102054.88;5010656;28;20030;-77
2022/05/21 08:46:23;;;;;;;17.52;7.40;;;;;;;15.13;67.82;102059.09;5011917;28;20099;-77
2022/05/21 08:49:01;;;;;;;16.08;6.13;;;;;;;15.24;67.58;102059.66;5012784;28;20202;-78
2022/05/21 08:51:32;;;;;;;15.65;5.97;;;;;;;15.34;66.78;102068.16;5011291;28;20030;-77
2022/05/21 08:54:00;;;;;;;12.52;5.63;;;;;;;15.41;65.97;102069.72;5011351;28;20049;-78
2022/05/21 08:56:26;;;;;;;13.80;5.10;;;;;;;15.47;66.14;102072.16;5012489;28;20089;-78
2022/05/21 08:59:01;;;;;;;13.95;5.38;;;;;;;15.49;65.21;102066.91;5011573;28;20133;-78
2022/05/21 09:01:27;;;;;;;14.05;5.72;;;;;;;15.51;65.33;102053.72;5010831;28;20032;-78
2022/05/21 09:03:54;;;;;;;14.98;5.68;;;;;;;15.50;63.62;102060.75;5012673;28;20033;-78
2022/05/21 09:06:33;;;;;;;16.10;5.55;;;;;;;15.45;64.11;102049.50;5012278;28;20026;-78
2022/05/21 09:09:40;;;;;;;12.48;5.05;;;;;;;15.49;65.58;102061.66;5012530;28;20033;-78
2022/05/21 09:12:05;;;;;;;13.32;5.22;;;;;;;15.58;64.91;102056.16;5011421;28;20484;-78
2022/05/21 09:14:41;;;;;;;10.93;4.63;;;;;;;15.70;64.30;102048.84;5012236;28;20030;-78
2022/05/21 09:17:17;;;;;;;13.68;4.95;;;;;;;15.71;62.60;102045.34;5011259;28;20044;-78
2022/05/21 09:19:48;;;;;;;11.68;4.63;;;;;;;15.68;62.63;102048.03;5012597;28;20386;-78
2022/05/21 09:22:17;;;;;;;10.57;4.60;;;;;;;15.72;63.46;102052.28;5011377;28;20428;-78
2022/05/21 09:24:50;;;;;;;13.85;4.95;;;;;;;15.70;61.94;102041.00;5007143;28;20040;-79
2022/05/21 09:27:39;;;;;;;13.98;4.90;;;;;;;15.73;64.26;102043.50;5005402;28;20041;-78
2022/05/21 09:30:26;;;;;;;15.55;5.13;;;;;;;15.85;64.29;102052.78;5006278;28;20067;-78
2022/05/21 09:33:01;;;;;;;17.38;5.22;;;;;;;15.93;61.99;102050.84;5005774;28;20053;-78
2022/05/21 09:35:33;;;;;;;13.07;5.28;;;;;;;16.02;62.03;102060.22;5004984;28;20520;-79
2022/05/21 09:38:20;;;;;;;14.27;5.88;;;;;;;16.10;62.37;102054.75;5006436;28;20053;-78
2022/05/21 09:40:45;;;;;;;13.93;5.68;;;;;;;16.17;62.23;102051.91;5007126;28;20483;-78
2022/05/21 09:46:19;;;;;;;14.23;5.70;;;;;;;16.34;62.23;102061.03;5005621;28;20044;-78
2022/05/21 09:48:46;;;;;;;8.27;4.13;;;;;;;16.38;60.62;102067.91;5005546;28;20125;-78
2022/05/21 09:51:27;;;;;;;6.60;3.30;;;;;;;16.38;61.26;102062.66;5005324;28;20033;-78
2022/05/21 09:53:53;;;;;;;8.13;3.10;;;;;;;16.39;58.62;102065.22;5005021;28;20084;-78
2022/05/21 09:56:28;;;;;;;10.05;3.33;;;;;;;16.48;60.25;102065.88;5005526;28;20026;-78
2022/05/21 09:59:18;;;;;;;11.13;4.35;;;;;;;16.47;61.20;102053.63;5004623;28;20038;-78
2022/05/21 10:01:46;;;;;;;10.55;4.45;;;;;;;16.39;60.16;102053.88;5005290;28;20612;-78
2022/05/21 10:04:40;;;;;;;13.80;4.30;;;;;;;16.30;60.21;102069.91;5003650;28;20038;-79
2022/05/21 10:10:58;;;;;;;13.15;4.82;;;;;;;16.14;61.17;102064.25;4988426;28;20148;-79
2022/05/21 10:13:30;;;;;;;11.10;5.10;;;;;;;16.13;60.47;102066.00;5004532;28;20037;-79
2022/05/21 10:16:10;;;;;;;12.43;4.90;;;;;;;16.24;61.03;102063.91;5005974;28;20034;-78
2022/05/21 10:18:50;;;;;;;12.02;4.45;;;;;;;16.41;61.06;102065.16;5005387;28;20037;-79
2022/05/21 10:21:25;;;;;;;9.47;4.00;;;;;;;16.56;59.39;102070.88;5006229;28;20052;-79
2022/05/21 10:24:03;;;;;;;12.82;4.05;;;;;;;16.61;59.72;102075.06;5005102;28;20032;-80
2022/05/21 10:26:41;;;;;;;13.02;4.72;;;;;;;16.67;58.94;102074.03;5004442;28;20128;-78
2022/05/21 10:29:09;;;;;;;10.38;4.90;;;;;;;16.71;58.64;102073.03;5006560;28;20026;-78
2022/05/21 10:32:00;;;;;;;13.80;5.20;;;;;;;16.71;59.98;102070.41;5005889;28;20033;-78
2022/05/21 10:34:25;;;;;;;13.75;4.82;;;;;;;16.72;59.29;102066.84;5005123;28;20115;-78
2022/05/21 10:37:17;;;;;;;12.23;4.60;;;;;;;16.77;59.99;102064.91;5005294;28;20591;-78
2022/05/21 10:40:07;;;;;;;11.20;4.85;;;;;;;16.87;60.11;102065.47;4999101;28;20412;-78
2022/05/21 10:42:54;;;;;;;9.57;4.28;;;;;;;16.92;58.97;102065.31;5004687;28;20108;-78
2022/05/21 10:45:30;;;;;;;9.98;4.30;;;;;;;16.97;59.78;102076.59;5004698;28;20084;-78
2022/05/21 10:48:12;;;;;;;11.32;3.83;;;;;;;16.98;59.08;102065.16;5004324;28;20104;-78
2022/05/21 10:50:54;;;;;;;10.38;3.78;;;;;;;16.94;59.55;102067.00;5002986;28;20119;-78
2022/05/21 10:53:41;;;;;;;11.38;4.20;;;;;;;16.81;60.16;102076.22;5006314;28;20030;-78
2022/05/21 10:56:31;;;;;;;12.70;4.47;;;;;;;16.66;59.89;102082.81;5005019;28;20041;-78
2022/05/21 10:59:12;;;;;;;12.40;4.00;;;;;;;16.57;59.77;102085.75;5003665;28;20465;-78
2022/05/21 11:02:17;;;;;;;9.18;4.10;;;;;;;16.60;60.36;102085.63;5004710;28;20041;-78
2022/05/21 11:04:53;;;;;;;11.57;3.67;;;;;;;16.65;60.29;102081.94;5004771;28;20044;-78
2022/05/21 11:07:45;;;;;;;11.45;3.75;;;;;;;16.74;60.73;102082.56;5004949;28;20105;-78
2022/05/21 11:10:24;;;;;;;9.65;3.95;;;;;;;16.80;60.62;102085.84;5004551;28;20485;-78
2022/05/21 11:12:53;;;;;;;8.73;4.55;;;;;;;16.88;59.64;102082.97;5004911;28;20611;-78
2022/05/21 11:15:36;;;;;;;13.82;5.78;;;;;;;16.96;61.07;102080.13;5005112;28;20026;-78
2022/05/21 11:18:35;;;;;;;11.13;4.68;;;;;;;17.08;59.75;102090.22;5004972;28;20034;-78
2022/05/21 11:21:18;;;;;;;12.13;4.20;;;;;;;17.04;57.95;102088.63;5004366;28;20053;-79
2022/05/21 11:24:08;;;;;;;8.15;4.22;;;;;;;16.96;59.51;102093.28;5004678;28;20034;-78
2022/05/21 11:26:56;;;;;;;9.05;4.13;;;;;;;16.92;59.75;102099.50;5004837;28;20030;-78
2022/05/21 11:29:48;;;;;;;13.68;4.13;;;;;;;16.92;59.62;102089.84;5004828;28;20036;-78
2022/05/21 11:38:03;;;;;;;6.65;2.28;;;;;;;17.25;55.53;102086.22;5009018;28;20160;-79
2022/05/21 11:46:52;;;;;;;9.88;2.22;;;;;;;17.28;55.72;102078.19;5007579;28;20041;-78
2022/05/21 11:49:27;;;;;;;6.63;2.60;;;;;;;17.24;57.21;102080.06;5007705;28;20073;-78
2022/05/21 11:51:52;;;;;;;11.63;2.63;;;;;;;17.35;57.04;102086.72;5008493;28;20137;-78
2022/05/21 11:54:56;;;;;;;8.95;2.78;;;;;;;17.43;56.95;102075.03;5008094;28;20116;-78
2022/05/21 11:57:36;;;;;;;9.00;2.58;;;;;;;17.40;56.09;102088.31;5008250;28;20073;-78
2022/05/21 12:00:07;;;;;;;6.85;2.55;;;;;;;17.34;55.54;102091.13;5008300;28;20036;-78
2022/05/21 12:02:35;;;;;;;7.03;2.53;;;;;;;17.28;57.02;102078.19;5008372;28;20045;-78